Time;durP1;ratioP1;P1;durP2;ratioP2;P2;SDS_P1;SDS_P2;PMS_P1;PMS_P2;Temp;Humidity;BMP_temperature;BMP_pressure;BME280_temperature;BME280_humidity;BME280_pressure;Samples;Min_cycle;Max_cycle;Signal;HPM_P1;HPM_P2
2023/06/28 00:04:41;;;;;;;10.57;9.57;;;26.70;64.10;;;;;;4702295;55;21545;-38
2023/06/28 00:09:42;;;;;;;11.52;10.38;;;26.70;64.10;;;;;;4742350;55;21469;-38
2023/06/28 00:14:43;;;;;;;11.23;10.13;;;26.70;64.20;;;;;;4658722;60;21349;-40
2023/06/28 00:19:47;;;;;;;10.98;9.98;;;26.70;64.20;;;;;;4658679;60;21024;-39
2023/06/28 00:24:48;;;;;;;11.55;10.45;;;26.70;64.90;;;;;;4684170;56;21502;-38
2023/06/28 00:29:49;;;;;;;11.32;10.25;;;26.70;64.30;;;;;;4658770;60;21052;-37
2023/06/28 00:34:50;;;;;;;11.57;10.48;;;26.70;64.20;;;;;;4843271;55;21159;-38
2023/06/28 00:39:51;;;;;;;10.63;9.63;;;26.70;64.20;;;;;;4661661;56;21009;-37
2023/06/28 00:44:52;;;;;;;11.10;10.00;;;26.70;64.30;;;;;;4657847;60;21048;-39
2023/06/28 00:49:54;;;;;;;10.52;9.52;;;26.70;64.30;;;;;;4665279;55;21506;-39
2023/06/28 00:54:55;;;;;;;10.80;9.80;;;26.60;64.30;;;;;;4658653;60;21088;-35
2023/06/28 00:59:58;;;;;;;11.10;10.10;;;26.70;64.40;;;;;;4689928;56;21490;-38
2023/06/28 01:05:03;;;;;;;10.45;9.55;;;26.60;64.30;;;;;;4663495;56;21024;-37
2023/06/28 01:10:06;;;;;;;10.45;9.30;;;26.70;64.30;;;;;;4760599;56;21927;-36
2023/06/28 01:15:08;;;;;;;10.23;9.23;;;26.70;64.40;;;;;;4668512;56;21068;-35
2023/06/28 01:20:09;;;;;;;10.20;9.20;;;26.60;64.40;;;;;;4779872;55;21337;-33
2023/06/28 01:25:10;;;;;;;10.27;9.27;;;26.70;64.40;;;;;;4710247;55;21333;-37
2023/06/28 01:30:14;;;;;;;10.30;9.40;;;26.70;64.40;;;;;;4699871;55;21853;-36
2023/06/28 01:35:15;;;;;;;10.88;9.82;;;26.60;64.40;;;;;;4700080;55;21027;-36
2023/06/28 01:40:16;;;;;;;10.02;9.13;;;26.60;64.40;;;;;;4739637;55;21008;-38
2023/06/28 01:45:17;;;;;;;10.18;9.27;;;26.70;64.40;;;;;;4658266;60;21052;-37
2023/06/28 01:50:18;;;;;;;10.30;9.30;;;26.70;64.50;;;;;;4704736;56;21016;-38
2023/06/28 01:55:19;;;;;;;11.00;9.95;;;26.60;64.50;;;;;;4680367;56;21522;-37
2023/06/28 02:00:20;;;;;;;9.45;8.65;;;26.70;64.50;;;;;;4724847;56;21012;-38
2023/06/28 02:05:21;;;;;;;9.82;8.93;;;26.60;64.50;;;;;;4763019;55;21032;-38
2023/06/28 02:10:23;;;;;;;9.73;8.82;;;26.60;64.50;;;;;;4665905;56;21016;-38
2023/06/28 02:15:24;;;;;;;9.65;8.68;;;26.60;64.50;;;;;;4759552;55;21622;-38
2023/06/28 02:20:25;;;;;;;9.25;8.45;;;26.60;64.50;;;;;;4672400;55;21112;-38
2023/06/28 02:25:26;;;;;;;10.15;9.20;;;26.60;64.50;;;;;;4657810;60;21084;-37
2023/06/28 02:30:26;;;;;;;9.38;8.57;;;26.60;64.50;;;;;;4781035;55;21031;-38
2023/06/28 02:35:27;;;;;;;9.23;8.43;;;26.60;64.50;;;;;;4669955;56;21037;-38
2023/06/28 02:40:28;;;;;;;9.40;8.50;;;26.60;64.50;;;;;;4690188;56;21084;-37
2023/06/28 02:45:29;;;;;;;9.27;8.30;;;26.60;64.50;;;;;;4705714;55;21397;-38
2023/06/28 02:50:30;;;;;;;8.95;8.15;;;26.60;64.50;;;;;;4658964;60;21036;-38
2023/06/28 02:55:31;;;;;;;9.15;8.25;;;26.60;64.60;;;;;;4658711;60;21550;-38
2023/06/28 03:00:31;;;;;;;9.02;8.13;;;26.60;64.50;;;;;;4737458;56;21341;-37
2023/06/28 03:05:32;;;;;;;8.73;7.93;;;26.60;64.50;;;;;;4694381;55;21047;-38
2023/06/28 03:10:33;;;;;;;9.20;8.30;;;26.60;64.50;;;;;;4748400;56;21028;-38
2023/06/28 03:15:34;;;;;;;8.50;7.70;;;26.60;64.50;;;;;;4659011;60;21044;-36
2023/06/28 03:20:35;;;;;;;8.32;7.62;;;26.60;64.50;;;;;;4658609;60;21016;-36
2023/06/28 03:25:35;;;;;;;8.35;7.65;;;26.60;64.50;;;;;;4708568;56;21841;-37
2023/06/28 03:30:36;;;;;;;8.35;7.53;;;26.60;64.50;;;;;;4661302;56;21373;-35
2023/06/28 03:35:37;;;;;;;8.50;7.80;;;26.60;64.60;;;;;;4658188;60;21393;-37
2023/06/28 03:40:38;;;;;;;8.02;7.32;;;26.60;64.50;;;;;;4658491;60;21072;-37
2023/06/28 03:45:39;;;;;;;8.23;7.53;;;26.60;64.60;;;;;;4685032;56;21501;-36
2023/06/28 03:50:39;;;;;;;7.95;7.25;;;26.60;64.50;;;;;;4679104;56;21479;-37
2023/06/28 03:55:40;;;;;;;8.13;7.43;;;26.60;64.70;;;;;;4678959;56;21024;-37
2023/06/28 04:00:41;;;;;;;8.35;7.55;;;26.60;64.60;;;;;;4701451;55;21052;-35
2023/06/28 04:05:42;;;;;;;7.68;7.05;;;26.60;64.50;;;;;;4658201;60;21585;-34
2023/06/28 04:10:44;;;;;;;8.70;7.90;;;26.60;64.60;;;;;;4914152;55;21010;-37
2023/06/28 04:15:44;;;;;;;8.35;7.65;;;26.60;64.60;;;;;;4814165;55;21474;-35
2023/06/28 04:20:45;;;;;;;7.93;7.22;;;26.60;64.60;;;;;;4665796;56;21012;-34
2023/06/28 04:25:46;;;;;;;7.47;6.78;;;26.60;64.60;;;;;;4702025;56;21007;-37
2023/06/28 04:30:47;;;;;;;8.02;7.32;;;26.60;64.50;;;;;;4740830;55;21088;-37
2023/06/28 04:35:51;;;;;;;7.40;6.70;;;26.60;64.50;;;;;;4659097;60;21108;-38
2023/06/28 04:40:51;;;;;;;8.27;7.47;;;26.60;64.50;;;;;;4759140;55;21589;-37
2023/06/28 04:45:55;;;;;;;7.18;6.55;;;26.60;64.60;;;;;;4743651;55;21373;-38
2023/06/28 04:50:56;;;;;;;8.18;7.45;;;26.60;64.50;;;;;;4658989;56;21801;-37
2023/06/28 04:56:00;;;;;;;7.40;6.80;;;26.60;64.60;;;;;;4673071;56;21052;-35
2023/06/28 05:01:06;;;;;;;7.80;7.10;;;26.60;64.50;;;;;;4668393;56;21542;-38
2023/06/28 05:06:09;;;;;;;7.60;7.00;;;26.60;64.70;;;;;;4765735;55;21521;-39
2023/06/28 05:11:10;;;;;;;7.50;6.90;;;26.60;64.60;;;;;;4827905;55;21072;-34
2023/06/28 05:16:11;;;;;;;7.43;6.78;;;26.60;64.50;;;;;;4659057;60;21478;-36
2023/06/28 05:21:12;;;;;;;7.47;6.78;;;26.60;64.60;;;;;;4727503;55;21100;-35
2023/06/28 05:26:13;;;;;;;6.93;6.32;;;26.60;64.60;;;;;;4673788;56;21549;-38
2023/06/28 05:31:17;;;;;;;7.93;7.22;;;26.60;64.70;;;;;;4658953;60;21055;-36
2023/06/28 05:36:22;;;;;;;8.02;7.22;;;26.60;64.70;;;;;;4791058;55;21510;-36
2023/06/28 05:41:22;;;;;;;7.55;6.87;;;26.60;64.60;;;;;;4661830;56;21582;-37
2023/06/28 05:46:23;;;;;;;7.90;7.20;;;26.60;64.60;;;;;;4735210;55;21068;-36
2023/06/28 05:51:24;;;;;;;7.30;6.60;;;26.60;64.60;;;;;;4688947;55;21036;-37
2023/06/28 05:56:25;;;;;;;8.02;7.32;;;26.60;64.70;;;;;;4663754;56;21028;-35
2023/06/28 06:01:26;;;;;;;7.25;6.65;;;26.60;64.70;;;;;;4751454;56;21562;-39
2023/06/28 06:06:26;;;;;;;7.85;7.15;;;26.50;64.60;;;;;;4703707;56;21120;-39
2023/06/28 06:11:28;;;;;;;7.45;6.80;;;26.60;64.60;;;;;;4658369;60;21048;-34
2023/06/28 06:16:29;;;;;;;8.32;7.55;;;26.60;64.70;;;;;;4668436;56;21518;-38
2023/06/28 06:21:29;;;;;;;8.18;7.37;;;26.60;64.70;;;;;;4672661;56;21067;-39
2023/06/28 06:26:30;;;;;;;7.53;6.82;;;26.60;64.70;;;;;;4726429;55;21078;-36
2023/06/28 06:31:31;;;;;;;8.10;7.40;;;26.60;64.70;;;;;;4671454;56;21007;-39
2023/06/28 06:36:32;;;;;;;8.10;7.40;;;26.60;64.60;;;;;;4712551;56;21063;-37
2023/06/28 06:41:33;;;;;;;7.72;7.03;;;26.60;64.60;;;;;;4660532;56;21067;-35
2023/06/28 06:46:33;;;;;;;7.57;6.87;;;26.50;64.50;;;;;;4658754;60;21467;-35
2023/06/28 06:51:34;;;;;;;7.70;7.00;;;26.50;64.60;;;;;;4691439;56;21497;-38
2023/06/28 06:56:35;;;;;;;8.35;7.55;;;26.50;64.60;;;;;;4813060;55;21035;-38
2023/06/28 07:01:36;;;;;;;7.80;7.10;;;26.50;64.60;;;;;;4775829;56;21040;-38
2023/06/28 07:06:37;;;;;;;7.90;7.20;;;26.50;64.70;;;;;;4681239;56;21040;-36
2023/06/28 07:11:37;;;;;;;7.62;6.93;;;26.50;64.50;;;;;;4686293;56;21070;-38
2023/06/28 07:16:38;;;;;;;8.57;7.87;;;26.50;64.60;;;;;;4769787;56;21525;-39
2023/06/28 07:21:39;;;;;;;7.57;6.87;;;26.50;64.60;;;;;;4680712;56;21068;-37
2023/06/28 07:26:40;;;;;;;7.20;6.60;;;26.50;65.30;;;;;;4691746;56;21084;-38
2023/06/28 07:31:41;;;;;;;7.70;7.00;;;26.50;64.60;;;;;;4685153;55;21087;-36
2023/06/28 07:36:42;;;;;;;7.53;6.90;;;26.50;65.30;;;;;;4820335;55;21120;-37
2023/06/28 07:41:42;;;;;;;7.65;6.95;;;26.50;64.60;;;;;;4719481;55;21469;-36
2023/06/28 07:46:43;;;;;;;8.15;7.40;;;26.50;64.60;;;;;;4658779;60;21068;-37
2023/06/28 07:51:44;;;;;;;7.00;6.40;;;26.50;64.70;;;;;;4659282;60;21068;-36
2023/06/28 07:56:45;;;;;;;7.10;6.50;;;26.50;64.70;;;;;;4682320;56;21020;-36
2023/06/28 08:01:47;;;;;;;7.57;6.87;;;26.50;64.70;;;;;;4658467;60;21032;-35
2023/06/28 08:06:48;;;;;;;6.90;6.30;;;26.50;64.70;;;;;;4660445;56;21498;-34
2023/06/28 08:11:48;;;;;;;7.47;6.68;;;26.50;64.70;;;;;;4689703;56;21016;-34
2023/06/28 08:16:49;;;;;;;7.47;6.87;;;26.50;64.70;;;;;;4779778;56;21088;-36
2023/06/28 08:21:50;;;;;;;6.75;6.15;;;26.50;64.70;;;;;;4658829;60;21032;-39
2023/06/28 08:26:51;;;;;;;7.68;6.95;;;26.50;64.70;;;;;;4659214;60;21490;-36
2023/06/28 08:31:52;;;;;;;7.37;6.75;;;26.50;64.70;;;;;;4688825;56;21012;-37
2023/06/28 08:36:52;;;;;;;6.45;5.85;;;26.50;64.70;;;;;;4678353;56;21506;-38
2023/06/28 08:41:54;;;;;;;7.05;6.45;;;26.50;64.70;;;;;;4658745;60;21043;-39
2023/06/28 08:46:55;;;;;;;7.57;6.87;;;26.50;64.70;;;;;;4663492;56;21088;-35
2023/06/28 08:51:56;;;;;;;6.87;6.28;;;26.50;64.70;;;;;;4679739;56;21381;-38
2023/06/28 08:56:58;;;;;;;7.45;6.82;;;26.50;64.80;;;;;;4766697;56;21178;-37
2023/06/28 09:02:01;;;;;;;7.85;6.65;;;26.50;64.70;;;;;;4694061;56;21145;-34
2023/06/28 09:07:02;;;;;;;7.18;6.50;;;26.50;64.80;;;;;;4659055;60;21462;-38
2023/06/28 09:12:04;;;;;;;7.18;6.47;;;26.50;64.70;;;;;;4691305;56;21455;-37
2023/06/28 09:17:05;;;;;;;7.20;6.55;;;26.50;64.80;;;;;;4676931;56;21008;-38
2023/06/28 09:22:08;;;;;;;7.50;6.80;;;26.50;64.80;;;;;;4794107;55;21126;-38
2023/06/28 09:27:11;;;;;;;7.20;6.50;;;26.50;64.70;;;;;;4671540;56;21589;-38
2023/06/28 09:32:12;;;;;;;7.45;6.75;;;26.50;64.90;;;;;;4695314;55;21494;-37
2023/06/28 09:37:13;;;;;;;7.90;7.10;;;26.50;64.80;;;;;;4764584;55;21088;-37
2023/06/28 09:42:14;;;;;;;7.25;6.47;;;26.50;64.90;;;;;;4667405;56;21116;-39
2023/06/28 09:47:14;;;;;;;7.07;6.37;;;26.50;64.90;;;;;;4700359;56;21044;-36
2023/06/28 09:52:15;;;;;;;7.55;6.82;;;26.50;65.50;;;;;;4665216;56;21065;-37
2023/06/28 09:57:17;;;;;;;7.68;6.90;;;26.50;64.80;;;;;;4737978;55;21016;-38
2023/06/28 10:02:22;;;;;;;7.55;6.85;;;26.50;64.80;;;;;;4677600;55;21099;-33
2023/06/28 10:07:24;;;;;;;7.95;7.18;;;26.50;64.90;;;;;;4716963;56;21088;-37
2023/06/28 10:12:26;;;;;;;7.97;7.18;;;26.50;64.80;;;;;;4691784;56;22006;-37
2023/06/28 10:17:31;;;;;;;7.00;6.40;;;26.50;64.80;;;;;;4658878;60;21084;-37
2023/06/28 10:22:32;;;;;;;7.78;6.97;;;26.50;64.90;;;;;;4675113;56;21099;-36
2023/06/28 10:27:34;;;;;;;7.57;6.87;;;26.50;64.90;;;;;;4659292;60;21032;-32
2023/06/28 10:32:35;;;;;;;7.53;6.75;;;26.50;64.80;;;;;;4689329;56;21608;-34
2023/06/28 10:37:36;;;;;;;6.93;6.22;;;26.50;64.90;;;;;;4687331;56;21517;-37
2023/06/28 10:42:40;;;;;;;7.65;6.62;;;26.50;64.80;;;;;;4686549;56;21100;-37
2023/06/28 10:47:52;;;;;;;7.78;6.78;;;26.50;64.90;;;;;;4715404;56;21452;-37
2023/06/28 10:52:57;;;;;;;7.68;6.57;;;26.50;64.90;;;;;;4679539;55;21498;-38
2023/06/28 10:58:11;;;;;;;7.70;6.83;;;26.50;64.90;;;;;;4659230;60;21569;-37
2023/06/28 11:03:13;;;;;;;8.23;6.30;;;26.50;64.90;;;;;;4704567;56;21195;-38
2023/06/28 11:08:16;;;;;;;7.47;6.78;;;26.50;64.90;;;;;;4739454;56;21581;-38
2023/06/28 11:16:49;;;;;;;7.15;6.45;;;26.50;65.00;;;;;;4658767;60;21088;-39
2023/06/28 11:22:01;;;;;;;8.23;7.23;;;26.50;64.90;;;;;;4688143;56;21096;-36
2023/06/28 11:27:02;;;;;;;9.05;7.68;;;26.50;64.90;;;;;;4813689;55;21397;-42
2023/06/28 11:32:04;;;;;;;7.10;6.37;;;26.50;64.90;;;;;;4658967;60;21381;-34
2023/06/28 11:37:06;;;;;;;8.20;7.28;;;26.50;65.00;;;;;;4790369;56;21088;-39
2023/06/28 11:42:13;;;;;;;7.90;7.10;;;26.50;64.90;;;;;;4692672;56;21032;-35
2023/06/28 11:47:17;;;;;;;8.60;7.68;;;26.50;64.80;;;;;;4659152;56;21475;-40
2023/06/28 11:52:20;;;;;;;7.57;6.78;;;26.50;64.90;;;;;;4658923;60;21150;-36
2023/06/28 11:57:21;;;;;;;7.95;6.78;;;26.50;65.00;;;;;;4709677;55;21554;-38
2023/06/28 12:02:22;;;;;;;9.13;7.30;;;26.50;64.90;;;;;;4736372;56;21036;-37
2023/06/28 12:07:22;;;;;;;7.97;7.18;;;26.40;64.90;;;;;;4658762;60;21012;-37
2023/06/28 12:12:33;;;;;;;7.30;6.60;;;26.50;64.90;;;;;;4740754;55;21016;-35
2023/06/28 12:17:42;;;;;;;8.00;7.12;;;26.40;64.80;;;;;;4658913;60;21566;-40
2023/06/28 12:22:44;;;;;;;7.82;6.75;;;26.50;65.00;;;;;;4753694;55;21091;-38
2023/06/28 12:28:02;;;;;;;7.80;6.82;;;26.50;64.90;;;;;;4667062;55;21083;-37
2023/06/28 12:33:07;;;;;;;8.27;6.95;;;26.50;64.90;;;;;;4659161;56;21506;-37
2023/06/28 12:38:08;;;;;;;7.68;6.87;;;26.40;64.80;;;;;;4737468;56;21023;-36
2023/06/28 12:43:20;;;;;;;7.28;6.55;;;26.40;64.90;;;;;;4679472;56;21028;-35
2023/06/28 12:48:22;;;;;;;7.35;6.60;;;26.50;65.00;;;;;;4772086;55;21670;-37
2023/06/28 12:53:23;;;;;;;7.62;6.45;;;26.50;64.80;;;;;;4658903;60;21581;-38
2023/06/28 12:58:23;;;;;;;7.82;6.80;;;26.40;64.90;;;;;;4675283;56;21020;-37
2023/06/28 13:03:25;;;;;;;7.47;6.78;;;26.50;65.00;;;;;;4675500;56;21574;-38
2023/06/28 13:08:29;;;;;;;6.95;6.25;;;26.40;64.90;;;;;;4677012;56;21078;-37
2023/06/28 13:13:30;;;;;;;6.87;6.18;;;26.40;64.90;;;;;;4669809;56;21470;-35
2023/06/28 13:18:31;;;;;;;7.82;7.03;;;26.40;64.80;;;;;;4719185;56;21028;-38
2023/06/28 13:23:32;;;;;;;7.62;6.82;;;26.50;64.90;;;;;;4678954;56;21048;-38
2023/06/28 13:28:32;;;;;;;6.57;5.97;;;26.50;64.90;;;;;;4697379;56;21016;-38
2023/06/28 13:33:35;;;;;;;7.37;6.68;;;26.40;64.80;;;;;;4691990;56;21032;-30
2023/06/28 13:38:37;;;;;;;6.65;6.05;;;26.40;64.80;;;;;;4658894;60;21562;-38
2023/06/28 13:43:38;;;;;;;7.12;6.43;;;26.40;64.80;;;;;;4687228;56;21032;-36
2023/06/28 13:48:39;;;;;;;7.32;6.53;;;26.40;64.90;;;;;;4675776;56;21459;-38
2023/06/28 13:53:40;;;;;;;6.72;6.03;;;26.40;64.90;;;;;;4681150;55;21064;-38
2023/06/28 13:58:41;;;;;;;6.75;6.15;;;26.40;64.90;;;;;;4659126;60;21514;-38
2023/06/28 14:03:42;;;;;;;6.80;6.00;;;26.40;64.90;;;;;;4658572;60;21040;-39
2023/06/28 14:08:43;;;;;;;7.28;6.53;;;26.40;64.90;;;;;;4710930;56;21326;-36
2023/06/28 14:13:44;;;;;;;7.47;6.22;;;26.40;64.80;;;;;;4702281;55;21582;-38
2023/06/28 14:18:44;;;;;;;7.53;6.80;;;26.40;64.90;;;;;;4751353;55;21077;-38
2023/06/28 14:23:45;;;;;;;6.80;6.03;;;26.40;64.90;;;;;;4794548;55;21641;-38
2023/06/28 14:28:46;;;;;;;7.25;6.50;;;26.40;64.80;;;;;;4697778;56;21064;-38
2023/06/28 14:33:47;;;;;;;6.47;5.78;;;26.40;64.80;;;;;;4744608;56;21474;-33
2023/06/28 14:38:48;;;;;;;6.75;6.00;;;26.40;64.80;;;;;;4663986;56;21012;-36
2023/06/28 14:43:49;;;;;;;6.75;6.15;;;26.40;64.90;;;;;;4696643;55;21048;-39
2023/06/28 14:48:49;;;;;;;6.10;5.55;;;26.40;64.90;;;;;;4694434;55;21004;-38
2023/06/28 14:53:50;;;;;;;6.37;5.78;;;26.40;64.90;;;;;;4698065;55;21039;-37
2023/06/28 14:58:51;;;;;;;6.53;5.93;;;26.40;64.90;;;;;;4688700;56;21158;-38
2023/06/28 15:03:52;;;;;;;6.82;6.22;;;26.40;64.90;;;;;;4685436;55;21167;-38
2023/06/28 15:08:53;;;;;;;6.47;5.87;;;26.50;64.90;;;;;;4677584;56;21044;-36
2023/06/28 15:13:54;;;;;;;6.07;5.43;;;26.40;64.90;;;;;;4675653;56;21578;-38
2023/06/28 15:18:56;;;;;;;6.10;5.60;;;26.40;64.90;;;;;;4699031;56;21076;-38
2023/06/28 15:23:57;;;;;;;6.40;5.82;;;26.40;64.90;;;;;;4736594;55;21537;-37
2023/06/28 15:29:01;;;;;;;6.20;5.60;;;26.50;65.00;;;;;;4680605;55;21067;-36
2023/06/28 15:34:01;;;;;;;6.30;5.70;;;26.50;65.00;;;;;;4670858;55;21550;-38
2023/06/28 15:39:02;;;;;;;6.15;5.50;;;26.40;64.90;;;;;;4669278;56;21071;-38
2023/06/28 15:44:04;;;;;;;6.12;5.53;;;26.40;64.90;;;;;;4713400;56;21558;-37
2023/06/28 15:49:05;;;;;;;6.12;5.62;;;26.40;64.80;;;;;;4668031;56;21578;-38
2023/06/28 15:54:06;;;;;;;6.28;5.72;;;26.40;64.90;;;;;;4666908;56;21036;-37
2023/06/28 15:59:07;;;;;;;5.82;5.28;;;26.40;64.90;;;;;;4658779;56;21060;-37
2023/06/28 16:04:07;;;;;;;5.35;4.85;;;26.40;64.90;;;;;;4658480;60;21462;-40
2023/06/28 16:09:08;;;;;;;6.15;5.55;;;26.40;64.90;;;;;;4658420;60;21016;-37
2023/06/28 16:14:09;;;;;;;5.97;5.47;;;26.40;64.90;;;;;;4659193;60;21534;-36
2023/06/28 16:19:10;;;;;;;6.28;5.68;;;26.40;64.90;;;;;;4765952;55;21012;-36
2023/06/28 16:24:12;;;;;;;5.70;5.12;;;26.40;64.90;;;;;;4709015;56;21100;-39
2023/06/28 16:29:12;;;;;;;5.90;5.30;;;26.40;64.90;;;;;;4672554;56;21494;-38
2023/06/28 16:34:14;;;;;;;6.10;5.50;;;26.40;64.90;;;;;;4669523;55;21088;-38
2023/06/28 16:39:15;;;;;;;6.03;5.50;;;26.40;64.90;;;;;;4670530;56;20988;-36
2023/06/28 16:44:16;;;;;;;6.03;5.43;;;26.40;64.90;;;;;;4671415;56;21865;-39
2023/06/28 16:49:17;;;;;;;5.65;5.15;;;26.40;64.90;;;;;;4658934;60;21079;-35
2023/06/28 16:54:17;;;;;;;5.65;5.15;;;26.40;64.90;;;;;;4695864;56;21470;-38
2023/06/28 16:59:18;;;;;;;5.80;5.20;;;26.40;64.80;;;;;;4697549;56;21119;-40
2023/06/28 17:04:19;;;;;;;5.85;5.25;;;26.40;64.80;;;;;;4658500;60;21124;-35
2023/06/28 17:09:20;;;;;;;6.18;5.60;;;26.40;64.80;;;;;;4659254;56;21012;-39
2023/06/28 17:14:21;;;;;;;5.40;4.90;;;26.40;64.70;;;;;;4726292;56;21486;-37
2023/06/28 17:19:22;;;;;;;5.97;5.37;;;26.40;64.80;;;;;;4696711;56;21589;-39
2023/06/28 17:24:23;;;;;;;5.53;5.03;;;26.40;64.70;;;;;;4761646;56;21107;-35
2023/06/28 17:29:25;;;;;;;5.68;5.18;;;26.40;64.90;;;;;;4658962;57;21012;-39
2023/06/28 17:34:26;;;;;;;5.37;4.87;;;26.40;64.80;;;;;;4797127;55;21677;-41
2023/06/28 17:39:27;;;;;;;6.22;5.62;;;26.40;64.90;;;;;;4721327;55;21123;-38
2023/06/28 17:44:28;;;;;;;5.90;5.30;;;26.40;64.70;;;;;;4658730;60;21111;-38
2023/06/28 17:49:28;;;;;;;5.72;5.22;;;26.40;64.80;;;;;;4658449;60;21012;-36
2023/06/28 17:54:29;;;;;;;5.43;4.93;;;26.40;64.70;;;;;;4704792;55;21482;-37
2023/06/28 17:59:30;;;;;;;5.87;5.37;;;26.40;64.80;;;;;;4677821;56;21478;-39
2023/06/28 18:04:31;;;;;;;5.37;4.85;;;26.40;64.70;;;;;;4696867;56;21031;-39
2023/06/28 18:09:32;;;;;;;5.50;5.00;;;26.40;64.70;;;;;;4726312;56;21055;-37
2023/06/28 18:14:33;;;;;;;6.00;5.40;;;26.40;64.70;;;;;;4750900;56;21040;-39
2023/06/28 18:19:36;;;;;;;5.15;4.75;;;26.40;64.80;;;;;;4708098;56;21566;-37
2023/06/28 18:24:37;;;;;;;5.50;5.00;;;26.40;64.70;;;;;;4669505;56;22522;-39
2023/06/28 18:29:38;;;;;;;5.65;5.15;;;26.40;64.80;;;;;;4747961;56;21004;-39
2023/06/28 18:34:39;;;;;;;5.12;4.62;;;26.40;64.80;;;;;;4658680;60;21584;-37
2023/06/28 18:39:40;;;;;;;5.87;5.37;;;26.40;64.80;;;;;;4798352;56;21115;-38
2023/06/28 18:44:41;;;;;;;5.00;4.60;;;26.40;64.80;;;;;;4666066;56;21046;-38
2023/06/28 18:49:42;;;;;;;5.55;5.05;;;26.40;64.80;;;;;;4658977;60;21522;-36
2023/06/28 18:54:43;;;;;;;5.43;4.93;;;26.40;64.80;;;;;;4714981;55;21060;-38
2023/06/28 18:59:44;;;;;;;5.57;5.07;;;26.40;64.80;;;;;;4659260;56;21490;-39
2023/06/28 19:04:45;;;;;;;5.70;5.20;;;26.40;64.90;;;;;;4666306;55;21084;-36
2023/06/28 19:09:46;;;;;;;5.85;5.20;;;26.40;64.80;;;;;;4709415;56;21068;-35
2023/06/28 19:14:48;;;;;;;5.40;4.90;;;26.40;64.90;;;;;;4692090;56;21115;-39
2023/06/28 19:19:49;;;;;;;5.60;5.10;;;26.40;65.00;;;;;;4658664;60;21541;-38
2023/06/28 19:24:49;;;;;;;5.78;5.20;;;26.40;65.00;;;;;;4731067;56;21036;-33
2023/06/28 19:29:51;;;;;;;5.30;4.80;;;26.40;64.90;;;;;;4658771;60;21012;-37
2023/06/28 19:34:52;;;;;;;5.00;4.50;;;26.40;64.90;;;;;;4772387;55;21157;-39
2023/06/28 19:39:54;;;;;;;5.65;5.15;;;26.40;65.00;;;;;;4658539;60;21063;-33
2023/06/28 19:44:54;;;;;;;5.40;4.90;;;26.40;64.90;;;;;;4680637;56;21851;-40
2023/06/28 19:49:55;;;;;;;4.90;4.50;;;26.40;65.00;;;;;;4719398;55;21016;-36
2023/06/28 19:54:56;;;;;;;5.43;4.93;;;26.40;65.00;;;;;;4707140;56;21526;-38
2023/06/28 19:59:57;;;;;;;5.62;5.12;;;26.40;65.00;;;;;;4826699;56;21024;-37
2023/06/28 20:05:00;;;;;;;5.37;4.87;;;26.40;65.10;;;;;;4658077;57;22051;-37
2023/06/28 20:10:02;;;;;;;5.12;4.72;;;26.40;65.10;;;;;;4658804;60;21564;-37
2023/06/28 20:15:04;;;;;;;5.68;5.18;;;26.40;65.00;;;;;;4658652;60;21047;-35
2023/06/28 20:20:06;;;;;;;5.05;4.62;;;26.40;65.20;;;;;;4670590;56;21581;-38
2023/06/28 20:25:07;;;;;;;5.37;4.87;;;26.40;65.00;;;;;;4754571;56;21020;-37
2023/06/28 20:30:09;;;;;;;4.80;4.40;;;26.40;65.00;;;;;;4676308;56;21132;-39
2023/06/28 20:35:10;;;;;;;5.22;4.75;;;26.40;65.00;;;;;;4683041;56;21565;-41
2023/06/28 20:40:12;;;;;;;5.30;4.80;;;26.40;65.00;;;;;;4662732;56;21008;-39
2023/06/28 20:45:13;;;;;;;5.62;4.72;;;26.40;65.00;;;;;;4807377;55;21071;-37
2023/06/28 20:50:15;;;;;;;5.87;5.25;;;26.40;65.00;;;;;;4705588;56;21459;-38
2023/06/28 20:55:15;;;;;;;4.70;4.30;;;26.40;65.00;;;;;;4662213;56;21083;-36
2023/06/28 21:00:17;;;;;;;5.40;4.90;;;26.40;65.00;;;;;;4761371;55;21569;-36
2023/06/28 21:05:18;;;;;;;5.28;4.78;;;26.40;65.00;;;;;;4665824;56;21490;-36
2023/06/28 21:10:19;;;;;;;5.60;5.10;;;26.40;65.00;;;;;;4707234;55;21001;-37
2023/06/28 21:15:20;;;;;;;6.82;5.05;;;26.40;65.00;;;;;;4697640;56;21491;-37
2023/06/28 21:20:21;;;;;;;5.03;4.62;;;26.40;65.20;;;;;;4678124;55;21009;-38
2023/06/28 21:25:22;;;;;;;4.97;4.47;;;26.40;65.40;;;;;;4685734;56;21008;-39
2023/06/28 21:30:23;;;;;;;5.43;4.93;;;26.40;65.00;;;;;;4684076;56;21462;-37
2023/06/28 21:35:27;;;;;;;5.78;5.20;;;26.40;65.00;;;;;;4661339;55;21052;-39
2023/06/28 21:40:28;;;;;;;5.55;4.80;;;26.40;65.00;;;;;;4665499;56;21505;-36
2023/06/28 21:45:29;;;;;;;4.97;4.57;;;26.40;65.00;;;;;;4811641;55;21052;-35
2023/06/28 21:50:30;;;;;;;4.57;4.18;;;26.40;65.00;;;;;;4844469;56;21029;-34
2023/06/28 21:55:31;;;;;;;5.05;4.55;;;26.40;65.00;;;;;;4721537;56;21490;-37
2023/06/28 22:00:32;;;;;;;5.20;4.75;;;26.40;65.40;;;;;;4659687;56;21032;-35
2023/06/28 22:05:32;;;;;;;5.07;4.60;;;26.30;65.00;;;;;;4806153;55;21503;-36
2023/06/28 22:10:33;;;;;;;4.85;4.45;;;26.40;65.10;;;;;;4678731;56;21079;-38
2023/06/28 22:15:37;;;;;;;4.97;4.47;;;26.30;65.00;;;;;;4658818;60;21762;-39
2023/06/28 22:20:38;;;;;;;5.78;5.28;;;26.30;65.00;;;;;;4658969;60;21016;-38
2023/06/28 22:25:40;;;;;;;5.62;5.12;;;26.30;65.00;;;;;;4658141;60;21567;-37
2023/06/28 22:30:41;;;;;;;4.60;4.20;;;26.30;65.00;;;;;;4740614;55;21566;-38
2023/06/28 22:35:42;;;;;;;5.05;4.65;;;26.30;64.90;;;;;;4694549;56;21081;-37
2023/06/28 22:40:43;;;;;;;4.85;4.35;;;26.30;64.90;;;;;;4662255;56;21498;-37
2023/06/28 22:45:43;;;;;;;4.90;4.50;;;26.30;64.90;;;;;;4680352;56;21035;-37
2023/06/28 22:50:46;;;;;;;5.00;4.60;;;26.30;64.90;;;;;;4687634;55;21570;-37
2023/06/28 22:55:48;;;;;;;4.97;4.57;;;26.30;64.90;;;;;;4746195;55;22202;-39
2023/06/28 23:00:51;;;;;;;5.10;4.70;;;26.30;65.00;;;;;;4677235;56;21573;-38
2023/06/28 23:05:52;;;;;;;5.03;4.57;;;26.30;64.90;;;;;;4696119;56;22190;-39
2023/06/28 23:10:53;;;;;;;5.53;5.03;;;26.30;64.80;;;;;;4668979;55;21526;-38
2023/06/28 23:15:54;;;;;;;5.07;4.57;;;26.30;64.90;;;;;;4658973;56;21032;-38
2023/06/28 23:20:55;;;;;;;5.00;4.60;;;26.30;64.90;;;;;;4658995;56;21026;-39
2023/06/28 23:25:56;;;;;;;4.80;4.40;;;26.30;64.80;;;;;;4727593;56;21044;-43
2023/06/28 23:30:57;;;;;;;4.53;4.12;;;26.30;64.90;;;;;;4705398;56;21056;-36
2023/06/28 23:36:00;;;;;;;5.10;4.60;;;26.30;64.80;;;;;;4698319;56;21140;-44
2023/06/28 23:41:04;;;;;;;4.95;4.53;;;26.30;64.90;;;;;;4672896;56;21533;-38
2023/06/28 23:46:10;;;;;;;5.10;4.70;;;26.30;64.90;;;;;;4657976;60;21644;-38
2023/06/28 23:51:11;;;;;;;4.63;4.23;;;26.30;64.80;;;;;;4659100;60;21549;-37
2023/06/28 23:56:12;;;;;;;5.57;5.07;;;26.30;64.80;;;;;;4682597;56;21028;-37
